This is the latest recevied weather packets stored in our database for station/object W4ZHA. If no packets are shown the sender has not sent any weather packets the latest 10 day(s).
| Time | Temp. | Humidity | Pressure | Rain* | Wind** | Luminosity | Snow |
|---|---|---|---|---|---|---|---|
| 1788130034 | 31.67° C | 54% | 1019 hPa | 0 mm | - | 236 W/m² | - |
| 1788129730 | 31.67° C | 54% | 1019 hPa | 0 mm | - | 244 W/m² | - |
| 1788129427 | 31.67° C | 54% | 1019 hPa | 0 mm | - | 262 W/m² | - |
| 1788129122 | 32.22° C | 53% | 1019 hPa | 0 mm | - | 279 W/m² | - |
| 1788128816 | 32.22° C | 53% | 1018.6 hPa | 0 mm | - | 288 W/m² | - |
| 1788128511 | 32.22° C | 52% | 1019 hPa | 0 mm | - | 297 W/m² | - |
| 1788128202 | 32.22° C | 48% | 1018.6 hPa | 0 mm | - | 308 W/m² | - |
| 1788127898 | 32.78° C | 46% | 1019 hPa | 0 mm | - | 316 W/m² | - |
| 1788127593 | 32.22° C | 48% | 1019 hPa | 0 mm | - | 326 W/m² | - |
| 1788127292 | 32.22° C | 51% | 1019 hPa | 0 mm | - | 335 W/m² | - |
| 1788126991 | 32.78° C | 51% | 1019 hPa | 0 mm | - | 344 W/m² | - |
| 1788126686 | 32.22° C | 53% | 1019.3 hPa | 0 mm | - | 346 W/m² | - |
| 1788126381 | 33.33° C | 49% | 1019 hPa | 0 mm | - | 356 W/m² | - |
| 1788126076 | 32.22° C | 53% | 1019.3 hPa | 0 mm | - | 361 W/m² | - |
| 1788125775 | 32.22° C | 53% | 1019.3 hPa | 0 mm | - | 367 W/m² | - |
| 1788125471 | 32.22° C | 53% | 1019.3 hPa | 0 mm | - | 378 W/m² | - |
| 1788125166 | 32.78° C | 47% | 1019 hPa | 0 mm | - | 394 W/m² | - |
| 1788124861 | 32.78° C | 50% | 1019 hPa | 0 mm | - | 392 W/m² | - |
| 1788124556 | 33.33° C | 45% | 1019.3 hPa | 0 mm | - | 402 W/m² | - |
| 1788124255 | 32.22° C | 49% | 1019 hPa | 0 mm | - | 409 W/m² | - |
| 1788123951 | 32.22° C | 49% | 1019.3 hPa | 0 mm | - | 150 W/m² | - |
| 1788123650 | 32.78° C | 48% | 1019.3 hPa | 0 mm | - | 412 W/m² | - |
| 1788123348 | 32.22° C | 52% | 1019 hPa | 0 mm | - | 400 W/m² | - |
| 1788123044 | 32.22° C | 48% | 1019 hPa | 0 mm | - | 414 W/m² | - |
| 1788122743 | 32.22° C | 45% | 1019.3 hPa | 0 mm | - | 257 W/m² | - |
* Rain latest hour (hover to see other rain measurements)
** Current wind speed in m/s (hover to see current wind gust speed)